Inman, South Carolina
Current Conditions -  °F | °C
As of 11:35 AM on Tuesday 21 Oct 2014 (Local Time) from KSPA Reporting Station
Clear Clear  
Wind Chill: 68°   Ceiling: Unl
Heat Index: 68°   Visibility: 10mi
Dew Point: 48°   Wind: 5mph
Humidity: 49%   Direction: 230°SW
Pressure: 29.96"   Gusts: NA
Location:  35.05°N, 82.09°W
Report Text: KSPA 211535Z AUTO 23004KT 10SM CLR 20/09 A2996 RMK AO2
Loading
Personal Weather Stations






























Interactive Weather Map
Tropical Storm Tracking
New forecast layout! Learn more

10-Day Weather Forecast

Advertisements
Track Severe Weather on mobile